Time;durP1;ratioP1;P1;durP2;ratioP2;P2;SDS_P1;SDS_P2;PMS_P1;PMS_P2;Temp;Humidity;BMP_temperature;BMP_pressure;BME280_temperature;BME280_humidity;BME280_pressure;Samples;Min_cycle;Max_cycle;Signal;HPM_P1;HPM_P2
2023/05/11 00:02:12;;;;;;;10.38;6.20;;;17.20;51.30;;;;;;6178819;23;20036;-82
2023/05/11 00:04:38;;;;;;;14.05;6.05;;;17.20;51.20;;;;;;6179198;23;20009;-81
2023/05/11 00:07:04;;;;;;;10.68;5.70;;;17.20;51.20;;;;;;6178537;23;20024;-85
2023/05/11 00:09:31;;;;;;;12.65;5.90;;;17.20;51.30;;;;;;6178627;23;20032;-84
2023/05/11 00:11:57;;;;;;;9.77;5.53;;;17.20;52.30;;;;;;6178252;23;20017;-83
2023/05/11 00:14:23;;;;;;;14.27;5.53;;;17.20;53.10;;;;;;6178813;23;20033;-79
2023/05/11 00:16:49;;;;;;;13.20;5.43;;;17.10;53.80;;;;;;6179113;23;20005;-79
2023/05/11 00:19:15;;;;;;;10.20;5.18;;;17.10;53.20;;;;;;6178210;23;20052;-79
2023/05/11 00:21:41;;;;;;;12.00;5.47;;;17.10;53.10;;;;;;6175384;23;20024;-81
2023/05/11 00:24:07;;;;;;;10.30;5.80;;;17.10;52.80;;;;;;6178524;23;20013;-82
2023/05/11 00:26:33;;;;;;;9.75;5.30;;;17.10;52.80;;;;;;6178137;23;20025;-81
2023/05/11 00:28:59;;;;;;;9.48;5.60;;;17.10;52.80;;;;;;6152569;23;20348;-81
2023/05/11 00:31:25;;;;;;;14.77;5.68;;;17.10;53.20;;;;;;6178229;23;20094;-82
2023/05/11 00:33:53;;;;;;;11.98;5.65;;;17.10;53.50;;;;;;6151688;23;20021;-82
2023/05/11 00:36:20;;;;;;;11.38;6.40;;;17.10;53.60;;;;;;6178062;23;20013;-80
2023/05/11 00:38:48;;;;;;;10.35;6.25;;;17.00;52.60;;;;;;6176929;23;20052;-81
2023/05/11 00:41:14;;;;;;;12.52;6.25;;;17.10;52.30;;;;;;6150943;23;20013;-78
2023/05/11 00:43:40;;;;;;;11.52;6.20;;;17.00;52.00;;;;;;6127982;23;20067;-77
2023/05/11 00:46:06;;;;;;;12.32;6.10;;;17.00;51.80;;;;;;6152022;23;20025;-81
2023/05/11 00:48:33;;;;;;;10.82;5.93;;;17.00;51.70;;;;;;6152743;23;20017;-79
2023/05/11 00:50:59;;;;;;;16.13;6.70;;;17.00;51.60;;;;;;6180955;23;20112;-81
2023/05/11 00:53:25;;;;;;;9.95;6.40;;;17.00;51.70;;;;;;6129698;23;20028;-81
2023/05/11 00:55:52;;;;;;;12.07;6.80;;;17.00;51.50;;;;;;6154506;23;20015;-79
2023/05/11 00:58:18;;;;;;;9.77;6.25;;;17.00;51.50;;;;;;6180470;23;20017;-79
2023/05/11 01:00:46;;;;;;;10.27;6.57;;;16.90;51.50;;;;;;6153792;23;20554;-80
2023/05/11 01:03:14;;;;;;;13.00;6.60;;;17.00;51.50;;;;;;6180000;23;20534;-81
2023/05/11 01:06:06;;;;;;;14.45;6.38;;;16.90;51.50;;;;;;6180083;23;20544;-78
2023/05/11 01:08:35;;;;;;;12.98;6.85;;;16.90;51.30;;;;;;6154144;23;20020;-79
2023/05/11 01:11:16;;;;;;;11.57;6.38;;;16.90;51.50;;;;;;6129470;23;20012;-79
2023/05/11 01:13:48;;;;;;;10.85;6.80;;;16.90;51.40;;;;;;6153307;23;20477;-80
2023/05/11 01:16:18;;;;;;;11.05;6.15;;;16.90;51.60;;;;;;6154019;23;20017;-78
2023/05/11 01:18:59;;;;;;;9.32;5.78;;;16.90;51.60;;;;;;6153946;23;20087;-80
2023/05/11 01:21:32;;;;;;;14.75;6.65;;;16.90;51.40;;;;;;6153612;23;20017;-79
2023/05/11 01:24:25;;;;;;;11.68;6.53;;;16.90;51.20;;;;;;6153815;23;20016;-78
2023/05/11 01:27:29;;;;;;;13.63;6.45;;;16.90;51.30;;;;;;6178840;23;20019;-78
2023/05/11 01:30:14;;;;;;;13.75;6.43;;;16.90;51.20;;;;;;6153887;23;20028;-78
2023/05/11 01:32:43;;;;;;;13.32;6.32;;;16.90;51.30;;;;;;6131887;23;20024;-79
2023/05/11 01:35:31;;;;;;;13.63;5.88;;;16.80;51.40;;;;;;6182982;23;20009;-81
2023/05/11 01:38:00;;;;;;;9.30;6.00;;;16.80;51.90;;;;;;6156302;23;20015;-79
2023/05/11 01:40:30;;;;;;;15.40;6.28;;;16.80;52.20;;;;;;6153338;23;20447;-80
2023/05/11 01:43:01;;;;;;;16.02;6.50;;;16.80;51.90;;;;;;6153729;23;20024;-79
2023/05/11 01:45:29;;;;;;;11.68;6.55;;;16.80;52.00;;;;;;6153760;23;20021;-79
2023/05/11 01:47:56;;;;;;;9.77;5.72;;;16.80;52.20;;;;;;6128773;23;20464;-80
2023/05/11 01:50:24;;;;;;;9.52;6.20;;;16.80;52.20;;;;;;6179359;23;20017;-78
2023/05/11 01:52:51;;;;;;;12.05;5.97;;;16.80;52.30;;;;;;6180076;23;20096;-75
2023/05/11 01:55:20;;;;;;;11.07;5.90;;;16.80;52.60;;;;;;6153821;23;20492;-80
2023/05/11 01:57:50;;;;;;;11.55;6.70;;;16.80;52.50;;;;;;6153784;23;20502;-80
2023/05/11 02:00:17;;;;;;;9.45;5.88;;;16.80;52.40;;;;;;6153099;23;20020;-79
2023/05/11 02:02:46;;;;;;;15.68;6.18;;;16.80;52.60;;;;;;6179663;23;20352;-78
2023/05/11 02:05:16;;;;;;;7.35;5.70;;;16.80;52.40;;;;;;6153458;23;20032;-76
2023/05/11 02:07:44;;;;;;;12.82;6.05;;;16.80;52.50;;;;;;6153325;23;20005;-75
2023/05/11 02:10:13;;;;;;;8.82;5.85;;;16.80;52.40;;;;;;6178318;23;20115;-77
2023/05/11 02:12:42;;;;;;;10.02;6.05;;;16.80;52.40;;;;;;6179464;23;20602;-79
2023/05/11 02:15:09;;;;;;;10.13;5.95;;;16.80;52.30;;;;;;6178163;23;20029;-77
2023/05/11 02:17:38;;;;;;;10.77;5.07;;;16.70;52.70;;;;;;6153286;23;20016;-82
2023/05/11 02:20:08;;;;;;;7.93;5.40;;;16.80;52.10;;;;;;6153340;23;20005;-78
2023/05/11 02:22:35;;;;;;;10.88;5.93;;;16.70;52.00;;;;;;6153718;23;20095;-82
2023/05/11 02:25:03;;;;;;;9.57;6.20;;;16.70;52.00;;;;;;6129201;23;20025;-77
2023/05/11 02:27:31;;;;;;;7.65;5.63;;;16.70;52.10;;;;;;6177926;23;20032;-78
2023/05/11 02:29:57;;;;;;;9.85;6.80;;;16.70;51.90;;;;;;6153380;23;20075;-80
2023/05/11 02:32:25;;;;;;;7.43;5.60;;;16.70;51.90;;;;;;6152962;23;20017;-82
2023/05/11 02:35:06;;;;;;;10.73;5.55;;;16.70;51.70;;;;;;6153802;23;20005;-78
2023/05/11 02:37:37;;;;;;;9.10;5.10;;;16.70;51.60;;;;;;6128817;23;20461;-79
2023/05/11 02:40:32;;;;;;;7.20;5.28;;;16.70;51.50;;;;;;6156852;23;20023;-80
2023/05/11 02:43:12;;;;;;;10.07;5.30;;;16.70;51.50;;;;;;6177698;23;20044;-81
2023/05/11 02:45:47;;;;;;;8.00;5.38;;;16.70;51.50;;;;;;6152381;23;20029;-80
2023/05/11 02:48:21;;;;;;;7.15;4.65;;;16.70;51.50;;;;;;6152844;23;20021;-81
2023/05/11 02:50:51;;;;;;;7.05;4.95;;;16.70;51.40;;;;;;6152569;23;20028;-81
2023/05/11 02:53:19;;;;;;;10.18;5.15;;;16.70;51.50;;;;;;6152789;23;20013;-81
2023/05/11 02:55:47;;;;;;;8.52;5.13;;;16.70;51.40;;;;;;6178131;23;20013;-81
2023/05/11 02:58:14;;;;;;;8.18;5.13;;;16.70;51.40;;;;;;6152583;23;20468;-81
2023/05/11 03:00:44;;;;;;;7.65;5.00;;;16.70;51.40;;;;;;6152744;23;20044;-79
2023/05/11 03:03:11;;;;;;;6.97;4.75;;;16.70;51.40;;;;;;6152811;23;20132;-80
2023/05/11 03:05:37;;;;;;;7.47;5.38;;;16.70;51.50;;;;;;6177423;23;20013;-80
2023/05/11 03:08:03;;;;;;;7.07;4.93;;;16.70;51.70;;;;;;6152749;23;20563;-82
2023/05/11 03:10:30;;;;;;;9.02;5.10;;;16.70;51.80;;;;;;6152123;23;20430;-81
2023/05/11 03:12:57;;;;;;;8.82;4.95;;;16.70;52.00;;;;;;6176987;23;20025;-79
2023/05/11 03:15:24;;;;;;;8.02;5.20;;;16.70;51.90;;;;;;6152671;23;20075;-79
2023/05/11 03:17:54;;;;;;;8.80;5.00;;;16.70;51.80;;;;;;6152396;23;20020;-79
2023/05/11 03:20:22;;;;;;;8.30;4.65;;;16.70;51.70;;;;;;6152146;23;20009;-79
2023/05/11 03:22:49;;;;;;;6.80;4.93;;;16.70;51.70;;;;;;6179396;23;20013;-78
2023/05/11 03:25:17;;;;;;;7.90;5.03;;;16.70;51.60;;;;;;6178838;23;20025;-79
2023/05/11 03:27:45;;;;;;;6.28;4.53;;;16.70;51.60;;;;;;6152375;23;20479;-78
2023/05/11 03:30:14;;;;;;;7.68;4.75;;;16.70;51.50;;;;;;6152412;23;20017;-79
2023/05/11 03:32:43;;;;;;;10.68;4.97;;;16.70;51.40;;;;;;6152462;23;20060;-76
2023/05/11 03:35:10;;;;;;;11.13;5.28;;;16.70;51.40;;;;;;6152374;23;20020;-78
2023/05/11 03:37:37;;;;;;;6.22;4.57;;;16.70;51.40;;;;;;6179563;23;20354;-79
2023/05/11 03:40:09;;;;;;;7.20;4.75;;;16.70;51.20;;;;;;6177394;23;20017;-81
2023/05/11 03:42:45;;;;;;;7.07;4.13;;;16.70;51.20;;;;;;6154614;23;20044;-87
2023/05/11 03:45:16;;;;;;;7.05;4.68;;;16.80;51.20;;;;;;6152477;23;20469;-78
2023/05/11 03:47:43;;;;;;;8.35;4.50;;;16.80;51.30;;;;;;6153148;23;20013;-85
2023/05/11 03:50:10;;;;;;;7.90;4.90;;;16.80;51.20;;;;;;6154496;23;20095;-85
2023/05/11 03:52:37;;;;;;;5.88;4.22;;;16.80;51.10;;;;;;6129652;23;20028;-82
2023/05/11 03:55:03;;;;;;;7.10;4.53;;;16.80;51.20;;;;;;6129395;23;20048;-85
2023/05/11 03:57:30;;;;;;;7.97;4.15;;;16.80;51.00;;;;;;6130292;23;20096;-84
2023/05/11 03:59:55;;;;;;;7.07;4.82;;;16.80;51.00;;;;;;6155822;23;20713;-82
2023/05/11 04:02:23;;;;;;;8.13;4.63;;;16.80;50.90;;;;;;6105464;23;20299;-83
2023/05/11 04:04:51;;;;;;;7.13;4.28;;;16.80;50.90;;;;;;6106175;23;20011;-84
2023/05/11 04:07:17;;;;;;;6.13;3.92;;;16.90;51.00;;;;;;6129178;23;20020;-81
2023/05/11 04:09:43;;;;;;;6.85;4.45;;;16.90;50.90;;;;;;6153047;23;20104;-81
2023/05/11 04:12:09;;;;;;;8.65;4.40;;;16.90;50.80;;;;;;6127965;23;20044;-80
2023/05/11 04:14:35;;;;;;;7.18;4.15;;;16.90;50.60;;;;;;6152554;23;20020;-85
2023/05/11 04:17:01;;;;;;;9.05;4.13;;;16.90;50.60;;;;;;6177362;23;20524;-82
2023/05/11 04:19:27;;;;;;;8.60;4.20;;;16.90;50.60;;;;;;6176244;23;20534;-80
2023/05/11 04:21:54;;;;;;;10.65;4.07;;;16.90;50.60;;;;;;6150528;23;20108;-77
2023/05/11 04:24:20;;;;;;;5.93;4.10;;;17.00;50.60;;;;;;6149944;23;20009;-79
2023/05/11 04:26:46;;;;;;;5.45;3.63;;;16.90;50.50;;;;;;6126133;23;20412;-78
2023/05/11 04:29:12;;;;;;;7.50;4.10;;;17.00;50.50;;;;;;6151097;23;20012;-80
2023/05/11 04:31:38;;;;;;;5.70;3.97;;;17.00;50.50;;;;;;6151518;23;20005;-79
2023/05/11 04:34:07;;;;;;;7.65;3.80;;;17.00;50.50;;;;;;6151825;23;20188;-77
2023/05/11 04:36:34;;;;;;;5.30;3.80;;;17.00;50.40;;;;;;6151758;23;20021;-81
2023/05/11 04:39:02;;;;;;;9.13;3.60;;;17.10;50.30;;;;;;6151811;23;20017;-79
2023/05/11 04:41:28;;;;;;;5.72;3.85;;;17.10;50.30;;;;;;6152433;23;20520;-83
2023/05/11 04:43:56;;;;;;;5.45;3.38;;;17.10;50.20;;;;;;6152327;23;20108;-79
2023/05/11 04:46:22;;;;;;;4.93;3.42;;;17.20;52.90;;;;;;6152004;23;20040;-77
2023/05/11 04:48:48;;;;;;;11.07;3.55;;;17.20;52.30;;;;;;6151769;23;20416;-76
2023/05/11 04:51:14;;;;;;;7.40;3.50;;;17.20;54.10;;;;;;6151495;23;20036;-77
2023/05/11 04:53:43;;;;;;;10.98;3.42;;;17.30;54.10;;;;;;6151611;23;20028;-77
2023/05/11 04:56:09;;;;;;;8.05;4.00;;;17.30;53.60;;;;;;6151870;23;20020;-79
2023/05/11 04:58:35;;;;;;;5.70;3.80;;;17.40;53.30;;;;;;6154547;23;20032;-78
2023/05/11 05:01:02;;;;;;;7.75;3.83;;;17.50;53.00;;;;;;6154062;23;20027;-78
2023/05/11 05:03:27;;;;;;;6.40;4.30;;;17.50;52.80;;;;;;6150851;23;20025;-78
2023/05/11 05:05:54;;;;;;;6.20;4.07;;;17.60;52.50;;;;;;6150834;23;20021;-77
2023/05/11 05:08:20;;;;;;;7.88;4.03;;;17.70;52.30;;;;;;6151539;23;20027;-76
2023/05/11 05:10:47;;;;;;;7.05;3.75;;;17.90;52.00;;;;;;6150944;23;20012;-76
2023/05/11 05:13:15;;;;;;;6.18;3.90;;;18.00;51.30;;;;;;6178110;23;20021;-76
2023/05/11 05:15:41;;;;;;;6.10;3.60;;;18.20;50.60;;;;;;6151408;23;20021;-75
2023/05/11 05:18:07;;;;;;;7.05;3.42;;;18.30;50.00;;;;;;6151385;23;20341;-77
2023/05/11 05:20:34;;;;;;;6.18;4.00;;;18.40;49.70;;;;;;6152014;23;20023;-77
2023/05/11 05:23:01;;;;;;;7.03;4.50;;;18.50;50.10;;;;;;6152183;23;20017;-76
2023/05/11 05:25:27;;;;;;;9.68;3.78;;;18.60;49.30;;;;;;6127178;23;20113;-77
2023/05/11 05:27:54;;;;;;;4.78;3.72;;;18.70;49.10;;;;;;6152109;23;20116;-76
2023/05/11 05:30:20;;;;;;;6.43;3.80;;;18.80;48.70;;;;;;6127138;23;20044;-76
2023/05/11 05:32:47;;;;;;;8.45;3.78;;;19.00;48.50;;;;;;6151090;23;20376;-76
2023/05/11 05:35:13;;;;;;;6.03;3.67;;;19.20;48.10;;;;;;6152387;23;20040;-77
2023/05/11 05:37:41;;;;;;;5.15;3.83;;;19.30;47.80;;;;;;6153939;23;20075;-76
2023/05/11 05:40:08;;;;;;;5.72;3.72;;;19.50;47.50;;;;;;6128608;23;20021;-75
2023/05/11 05:42:39;;;;;;;7.03;3.33;;;19.60;47.00;;;;;;6153632;23;20490;-76
2023/05/11 05:45:07;;;;;;;4.85;3.53;;;19.60;46.80;;;;;;6153383;23;20016;-76
2023/05/11 05:47:34;;;;;;;7.57;3.70;;;19.60;46.80;;;;;;6129431;23;20013;-76
2023/05/11 05:50:00;;;;;;;11.38;7.63;;;19.60;48.80;;;;;;6167476;23;20023;-81
2023/05/11 05:52:26;;;;;;;8.57;5.00;;;19.70;50.00;;;;;;6179464;23;20025;-80
2023/05/11 05:54:53;;;;;;;6.43;4.05;;;19.70;50.60;;;;;;6178835;23;20024;-80
2023/05/11 05:57:19;;;;;;;8.77;4.70;;;19.70;50.30;;;;;;6179834;23;20013;-80
2023/05/11 05:59:45;;;;;;;6.90;3.60;;;19.80;50.40;;;;;;6178009;23;20530;-79
2023/05/11 06:02:12;;;;;;;7.85;4.40;;;19.70;50.50;;;;;;6177842;23;20036;-78
2023/05/11 06:04:38;;;;;;;6.75;3.50;;;19.80;51.10;;;;;;6178881;23;20005;-79
2023/05/11 06:07:05;;;;;;;9.65;4.68;;;19.80;51.00;;;;;;6178400;23;20104;-80
2023/05/11 06:09:30;;;;;;;7.60;4.05;;;19.80;51.50;;;;;;6178248;23;20013;-80
2023/05/11 06:11:56;;;;;;;8.45;3.60;;;19.80;50.80;;;;;;6177635;23;20024;-76
2023/05/11 06:14:23;;;;;;;7.03;3.72;;;19.90;50.90;;;;;;6202532;23;20013;-78
2023/05/11 06:16:50;;;;;;;7.90;3.70;;;20.00;51.10;;;;;;6152907;23;20453;-76
2023/05/11 06:19:16;;;;;;;6.63;3.42;;;20.10;50.90;;;;;;6177401;23;20024;-75
2023/05/11 06:21:44;;;;;;;5.95;3.35;;;20.30;50.40;;;;;;6177600;23;20539;-78
2023/05/11 06:24:11;;;;;;;6.55;3.20;;;20.30;50.40;;;;;;6177678;23;20021;-78
2023/05/11 06:26:39;;;;;;;8.48;3.20;;;20.50;50.10;;;;;;6177661;23;20468;-78
2023/05/11 06:29:06;;;;;;;4.82;2.90;;;20.70;49.70;;;;;;6178404;23;20020;-77
2023/05/11 06:31:33;;;;;;;4.07;2.88;;;20.80;48.60;;;;;;6177604;23;20072;-78
2023/05/11 06:33:59;;;;;;;4.50;2.88;;;20.90;47.90;;;;;;6179028;23;20476;-77
2023/05/11 06:36:27;;;;;;;7.88;2.47;;;21.00;46.60;;;;;;6174679;23;20369;-78
2023/05/11 06:38:53;;;;;;;4.53;2.40;;;21.00;46.60;;;;;;6177636;23;20016;-78
2023/05/11 06:41:21;;;;;;;4.55;2.50;;;21.10;46.40;;;;;;6175668;23;20020;-79
2023/05/11 06:43:47;;;;;;;5.80;2.55;;;21.10;46.40;;;;;;6177745;23;20096;-77
2023/05/11 06:46:20;;;;;;;4.75;2.40;;;21.20;46.80;;;;;;6152272;23;20330;-75
2023/05/11 06:48:46;;;;;;;3.53;2.30;;;21.30;46.20;;;;;;6152862;23;20021;-76
2023/05/11 06:51:13;;;;;;;4.53;2.25;;;21.30;44.50;;;;;;6153299;23;20059;-85
2023/05/11 06:53:39;;;;;;;8.23;5.75;;;21.50;44.70;;;;;;6152290;23;20447;-75
2023/05/11 06:56:05;;;;;;;11.10;5.82;;;21.50;44.10;;;;;;6179415;23;20104;-75
2023/05/11 06:58:31;;;;;;;9.35;6.40;;;21.60;45.00;;;;;;6153104;23;20099;-76
2023/05/11 07:00:57;;;;;;;9.20;5.38;;;21.60;44.50;;;;;;6179395;23;20048;-76
2023/05/11 07:03:23;;;;;;;10.73;5.28;;;21.60;44.70;;;;;;6152156;23;20045;-72
2023/05/11 07:05:49;;;;;;;7.75;4.00;;;21.70;46.40;;;;;;6178483;23;20124;-75
2023/05/11 07:08:15;;;;;;;6.97;3.47;;;21.80;45.00;;;;;;6179117;23;20088;-74
2023/05/11 07:10:41;;;;;;;4.72;2.80;;;21.90;44.20;;;;;;6182430;23;20088;-72
2023/05/11 07:13:07;;;;;;;5.68;2.50;;;22.00;44.50;;;;;;6181460;23;20108;-74
2023/05/11 07:15:33;;;;;;;4.47;2.60;;;22.00;43.80;;;;;;6181295;23;20024;-74
2023/05/11 07:18:00;;;;;;;3.15;2.25;;;22.10;43.20;;;;;;6181104;23;20016;-75
2023/05/11 07:20:26;;;;;;;7.20;2.53;;;22.20;42.80;;;;;;6179821;23;20013;-79
2023/05/11 07:22:57;;;;;;;6.20;2.63;;;22.20;42.90;;;;;;6153642;23;20012;-77
2023/05/11 07:25:23;;;;;;;3.47;2.35;;;22.20;44.20;;;;;;6152383;23;20021;-77
2023/05/11 07:27:49;;;;;;;6.45;2.00;;;22.20;42.70;;;;;;6152687;23;20028;-77
2023/05/11 07:30:16;;;;;;;4.47;2.40;;;22.30;42.80;;;;;;6152085;23;20017;-77
2023/05/11 07:32:42;;;;;;;8.45;2.38;;;22.40;46.40;;;;;;6178540;23;20057;-76
2023/05/11 07:35:08;;;;;;;5.60;2.67;;;22.40;48.60;;;;;;6181475;23;20329;-76
2023/05/11 07:37:34;;;;;;;2.45;2.13;;;22.50;44.10;;;;;;6181730;23;20045;-75
2023/05/11 07:40:00;;;;;;;5.07;2.20;;;22.50;42.90;;;;;;6181262;23;20396;-75
2023/05/11 07:42:26;;;;;;;3.47;2.17;;;22.50;45.20;;;;;;6154079;23;20342;-74
2023/05/11 07:44:52;;;;;;;3.38;2.20;;;22.50;42.10;;;;;;6181294;23;20020;-74
2023/05/11 07:47:19;;;;;;;5.88;2.28;;;22.60;45.50;;;;;;6154261;23;20036;-73
2023/05/11 07:49:46;;;;;;;5.90;2.15;;;22.60;46.60;;;;;;6181813;23;20115;-74
2023/05/11 07:52:12;;;;;;;5.80;2.33;;;22.50;43.30;;;;;;6154184;23;20044;-74
2023/05/11 07:54:39;;;;;;;7.53;2.50;;;22.50;43.00;;;;;;6180836;23;20017;-74
2023/05/11 07:57:05;;;;;;;7.80;2.50;;;22.50;45.10;;;;;;6181224;23;20028;-73
2023/05/11 07:59:31;;;;;;;4.07;2.33;;;22.60;46.70;;;;;;6181371;23;20453;-74
2023/05/11 08:01:57;;;;;;;3.45;2.58;;;22.60;42.10;;;;;;6154040;23;20008;-74
2023/05/11 08:04:25;;;;;;;3.85;2.22;;;22.50;41.80;;;;;;6181345;23;20028;-75
2023/05/11 08:06:52;;;;;;;3.45;2.25;;;22.50;44.40;;;;;;6153834;23;20421;-87
2023/05/11 08:09:18;;;;;;;5.22;3.10;;;22.40;41.90;;;;;;6151868;23;20020;-80
2023/05/11 08:11:44;;;;;;;3.55;2.28;;;22.30;40.20;;;;;;6151705;23;20012;-83
2023/05/11 08:14:09;;;;;;;4.43;1.90;;;22.20;38.70;;;;;;6178626;23;20012;-85
2023/05/11 08:16:36;;;;;;;2.67;2.05;;;22.10;38.50;;;;;;6179079;23;20009;-85
2023/05/11 08:19:02;;;;;;;2.58;2.10;;;22.10;38.30;;;;;;6151656;23;20089;-78
2023/05/11 08:21:28;;;;;;;6.03;2.65;;;22.10;38.50;;;;;;6151232;23;20033;-81
2023/05/11 08:23:54;;;;;;;2.38;1.85;;;22.10;38.70;;;;;;6179050;23;20013;-86
2023/05/11 08:26:20;;;;;;;4.95;2.00;;;22.00;38.40;;;;;;6179042;23;20039;-83
2023/05/11 08:28:46;;;;;;;6.05;2.80;;;22.10;38.30;;;;;;6180162;23;20014;-87
2023/05/11 08:31:13;;;;;;;2.83;1.90;;;22.00;37.90;;;;;;6179079;23;20087;-88
2023/05/11 08:33:39;;;;;;;2.80;1.90;;;22.00;38.10;;;;;;6179601;23;20029;-82
2023/05/11 08:36:05;;;;;;;3.03;2.13;;;22.00;38.10;;;;;;6178966;23;20024;-76
2023/05/11 08:38:32;;;;;;;2.90;2.10;;;21.90;37.90;;;;;;6178363;23;20457;-75
2023/05/11 08:40:58;;;;;;;6.20;2.22;;;21.90;38.60;;;;;;6152294;23;20541;-77
2023/05/11 08:43:26;;;;;;;4.85;1.90;;;21.90;38.80;;;;;;6179319;23;20089;-78
2023/05/11 08:45:56;;;;;;;5.13;2.15;;;21.90;39.30;;;;;;6152773;23;20100;-78
2023/05/11 08:48:22;;;;;;;2.60;1.75;;;21.80;38.90;;;;;;6151950;23;20373;-78
2023/05/11 08:50:48;;;;;;;2.20;2.00;;;21.80;38.90;;;;;;6128357;23;20372;-79
2023/05/11 08:53:15;;;;;;;1.83;1.60;;;21.80;38.60;;;;;;6128229;23;20036;-78
2023/05/11 08:55:42;;;;;;;3.35;1.58;;;21.70;38.70;;;;;;6179844;23;20445;-80
2023/05/11 08:58:09;;;;;;;1.88;1.63;;;21.60;38.80;;;;;;6152470;23;20473;-77
2023/05/11 09:00:36;;;;;;;4.20;1.90;;;21.60;38.80;;;;;;6178884;23;20357;-78
2023/05/11 09:03:03;;;;;;;2.92;1.45;;;21.60;38.60;;;;;;6178595;23;20028;-78
2023/05/11 09:05:31;;;;;;;3.17;1.67;;;21.60;38.70;;;;;;6178361;23;20021;-77
2023/05/11 09:08:00;;;;;;;3.05;1.45;;;21.50;38.90;;;;;;6153652;23;20009;-79
2023/05/11 09:10:27;;;;;;;1.95;1.40;;;21.60;38.90;;;;;;6181308;23;20025;-78
2023/05/11 09:12:53;;;;;;;3.47;1.30;;;21.50;39.50;;;;;;6106322;23;20021;-80
2023/05/11 09:15:19;;;;;;;2.63;1.42;;;21.50;39.30;;;;;;6129414;23;20435;-79
2023/05/11 09:17:45;;;;;;;6.18;1.40;;;21.60;40.10;;;;;;6180720;23;20020;-78
2023/05/11 09:20:11;;;;;;;4.82;1.70;;;21.60;40.00;;;;;;6181012;23;20005;-79
2023/05/11 09:22:43;;;;;;;2.97;2.03;;;21.50;39.10;;;;;;6155064;23;20468;-78
2023/05/11 09:25:12;;;;;;;5.47;1.70;;;21.50;39.40;;;;;;6180350;23;20096;-76
2023/05/11 09:27:42;;;;;;;12.32;3.65;;;21.50;41.00;;;;;;6153686;23;20020;-73
2023/05/11 09:34:25;;;;;;;11.65;2.30;;;21.70;43.00;;;;;;5058815;27;20325;-74
2023/05/11 09:36:53;;;;;;;6.97;1.95;;;21.70;43.00;;;;;;5050953;28;20748;-78
2023/05/11 09:39:30;;;;;;;5.38;1.75;;;21.60;43.40;;;;;;5047630;28;20411;-68
2023/05/11 09:42:15;;;;;;;6.15;2.00;;;21.50;44.70;;;;;;5082421;28;20043;-72
2023/05/11 09:44:42;;;;;;;1.90;1.58;;;21.30;43.80;;;;;;5050677;28;20075;-73
2023/05/11 09:47:18;;;;;;;5.65;1.70;;;21.20;42.10;;;;;;5052698;28;20082;-77
2023/05/11 09:49:45;;;;;;;2.15;1.30;;;20.70;43.20;;;;;;5051255;28;20048;-75
2023/05/11 09:52:14;;;;;;;3.28;1.30;;;20.50;44.90;;;;;;5050033;28;20140;-75
2023/05/11 09:54:45;;;;;;;1.50;1.35;;;20.50;46.00;;;;;;5051078;28;20033;-75
2023/05/11 09:57:30;;;;;;;2.80;1.27;;;20.40;46.20;;;;;;5051489;28;20424;-74
2023/05/11 09:59:58;;;;;;;1.38;1.27;;;20.40;47.10;;;;;;5049962;28;20036;-76
2023/05/11 10:02:26;;;;;;;2.30;1.20;;;20.30;48.20;;;;;;5051030;28;20032;-75
2023/05/11 10:04:54;;;;;;;2.70;1.30;;;20.30;48.30;;;;;;5050361;28;20068;-76
2023/05/11 10:07:34;;;;;;;2.25;1.48;;;20.30;49.30;;;;;;5049524;28;20033;-76
2023/05/11 10:10:05;;;;;;;2.92;1.40;;;20.20;49.90;;;;;;5048969;28;20123;-78
2023/05/11 10:12:33;;;;;;;1.58;1.30;;;20.20;49.70;;;;;;5050176;28;20045;-77
2023/05/11 10:15:07;;;;;;;1.83;1.20;;;20.10;50.40;;;;;;5065466;28;20499;-77
2023/05/11 10:17:34;;;;;;;2.03;1.42;;;20.10;50.70;;;;;;5065684;28;20033;-77
2023/05/11 10:20:03;;;;;;;2.88;1.35;;;20.10;50.60;;;;;;5050460;28;20040;-77
2023/05/11 10:22:30;;;;;;;1.65;1.40;;;20.10;49.60;;;;;;5054478;28;20527;-78
2023/05/11 10:24:57;;;;;;;2.20;2.00;;;20.10;49.40;;;;;;5048362;28;20036;-77
2023/05/11 10:27:24;;;;;;;3.17;1.92;;;20.10;49.90;;;;;;5049508;28;20494;-77
2023/05/11 10:29:50;;;;;;;2.90;1.60;;;20.00;49.80;;;;;;5048194;28;20411;-77
2023/05/11 10:32:17;;;;;;;3.47;1.90;;;20.00;50.80;;;;;;5049986;28;20044;-77
2023/05/11 10:34:47;;;;;;;3.42;1.60;;;20.00;51.00;;;;;;5050956;28;20071;-77
2023/05/11 10:37:15;;;;;;;2.75;1.35;;;19.90;51.00;;;;;;5064995;28;20124;-77
2023/05/11 10:39:42;;;;;;;2.63;1.20;;;19.90;50.20;;;;;;5048862;28;20036;-76
2023/05/11 10:42:25;;;;;;;3.05;1.38;;;19.90;48.40;;;;;;5048739;28;20462;-76
2023/05/11 10:45:09;;;;;;;1.42;1.20;;;19.90;48.40;;;;;;5055577;28;20072;-77
2023/05/11 10:48:13;;;;;;;2.85;1.58;;;19.90;48.10;;;;;;5035016;28;20029;-76
2023/05/11 10:50:58;;;;;;;2.00;1.27;;;20.00;48.10;;;;;;5067664;28;20033;-76
2023/05/11 10:53:48;;;;;;;3.67;1.30;;;20.00;47.90;;;;;;5035656;28;20047;-76
2023/05/11 10:56:42;;;;;;;2.08;1.33;;;20.00;47.60;;;;;;5036233;28;20509;-77
2023/05/11 10:59:29;;;;;;;2.08;1.23;;;20.00;47.40;;;;;;5037239;28;20033;-76
2023/05/11 11:02:00;;;;;;;3.03;1.08;;;20.00;46.70;;;;;;5036231;28;20530;-77
2023/05/11 11:04:45;;;;;;;2.45;1.05;;;20.00;46.50;;;;;;5037079;28;20041;-76
2023/05/11 11:07:16;;;;;;;3.85;1.33;;;20.00;46.70;;;;;;5036289;28;20097;-76
2023/05/11 11:09:56;;;;;;;2.45;1.58;;;19.90;46.90;;;;;;5034117;28;20044;-77
2023/05/11 11:12:25;;;;;;;3.88;0.90;;;19.80;45.60;;;;;;5034787;28;20149;-76
2023/05/11 11:14:58;;;;;;;2.33;1.10;;;19.60;46.30;;;;;;5035354;28;20086;-76
2023/05/11 11:17:26;;;;;;;0.85;0.85;;;19.50;46.70;;;;;;5036263;28;20029;-77
2023/05/11 11:19:53;;;;;;;1.23;1.00;;;19.40;46.90;;;;;;5037017;28;20025;-76
2023/05/11 11:22:34;;;;;;;1.00;0.90;;;19.10;48.90;;;;;;5035300;28;20040;-77
2023/05/11 11:25:04;;;;;;;2.05;1.13;;;18.60;51.20;;;;;;5034639;28;20523;-75
2023/05/11 11:27:48;;;;;;;1.33;0.60;;;18.50;51.40;;;;;;5036961;28;20043;-76
2023/05/11 11:30:22;;;;;;;1.10;0.80;;;18.60;51.20;;;;;;5035540;28;20115;-76
2023/05/11 11:33:08;;;;;;;10.25;1.13;;;18.70;51.50;;;;;;5034465;28;20045;-76
2023/05/11 11:35:40;;;;;;;0.85;0.70;;;18.70;52.00;;;;;;5030992;28;20618;-75
2023/05/11 11:38:17;;;;;;;1.13;0.68;;;18.80;52.20;;;;;;5037763;28;20040;-76
2023/05/11 11:40:48;;;;;;;1.55;0.52;;;18.80;51.50;;;;;;5035963;28;20044;-76
2023/05/11 11:43:27;;;;;;;1.70;0.60;;;18.60;50.30;;;;;;5035484;28;20060;-77
2023/05/11 11:45:58;;;;;;;1.80;0.93;;;18.50;50.10;;;;;;5034819;28;20116;-75
2023/05/11 11:48:35;;;;;;;3.05;0.73;;;18.40;51.80;;;;;;5034004;28;20567;-74
2023/05/11 11:51:10;;;;;;;1.83;0.90;;;18.30;51.40;;;;;;5035517;28;20033;-74
2023/05/11 11:53:40;;;;;;;1.65;0.90;;;18.40;53.00;;;;;;5035071;28;20045;-76
2023/05/11 11:56:12;;;;;;;1.17;0.85;;;18.40;53.60;;;;;;5035942;28;20673;-75
2023/05/11 11:58:41;;;;;;;3.08;1.00;;;18.60;54.10;;;;;;5036094;28;20042;-74
2023/05/11 12:01:08;;;;;;;1.13;1.00;;;18.60;54.60;;;;;;5035263;28;20438;-75
2023/05/11 12:03:35;;;;;;;1.67;1.05;;;18.70;54.40;;;;;;5034044;28;21016;-76
2023/05/11 12:06:05;;;;;;;1.63;1.00;;;18.70;54.80;;;;;;5034133;28;20132;-73
2023/05/11 12:08:31;;;;;;;1.58;1.20;;;18.70;55.30;;;;;;5034521;28;20041;-74
2023/05/11 12:10:58;;;;;;;3.53;1.48;;;18.70;55.60;;;;;;5034875;28;20123;-74
2023/05/11 12:13:24;;;;;;;3.00;1.20;;;18.80;56.00;;;;;;5035151;28;20048;-76
2023/05/11 12:16:11;;;;;;;2.85;1.13;;;18.80;57.20;;;;;;5036594;28;20036;-74
2023/05/11 12:18:38;;;;;;;2.97;1.08;;;18.80;57.60;;;;;;5065868;28;20103;-73
2023/05/11 12:21:04;;;;;;;3.15;1.02;;;18.90;57.40;;;;;;5032873;28;20048;-74
2023/05/11 12:23:30;;;;;;;3.53;1.10;;;18.90;57.50;;;;;;5016681;28;20037;-76
2023/05/11 12:26:06;;;;;;;1.95;0.90;;;18.90;58.00;;;;;;5034948;28;20033;-76
2023/05/11 12:28:32;;;;;;;1.17;1.08;;;18.90;58.20;;;;;;5033447;28;20036;-75
2023/05/11 12:30:58;;;;;;;1.48;1.25;;;18.80;58.50;;;;;;5033845;28;20057;-74
2023/05/11 12:33:25;;;;;;;4.10;1.25;;;18.80;58.40;;;;;;5032896;28;20045;-77
2023/05/11 12:35:52;;;;;;;1.98;1.30;;;18.90;58.40;;;;;;5066501;28;20034;-78
2023/05/11 12:38:18;;;;;;;3.63;1.30;;;19.00;58.10;;;;;;5034746;28;20400;-74
2023/05/11 12:40:52;;;;;;;4.00;1.20;;;19.00;58.30;;;;;;5035732;28;20052;-76
2023/05/11 12:43:21;;;;;;;3.85;1.35;;;19.10;58.00;;;;;;5034541;28;20025;-88
2023/05/11 12:45:48;;;;;;;1.60;1.10;;;19.10;57.60;;;;;;5025127;28;20044;-79
2023/05/11 12:48:14;;;;;;;1.40;1.00;;;19.20;56.90;;;;;;5034195;28;20044;-78
2023/05/11 12:50:42;;;;;;;1.67;0.95;;;19.20;56.30;;;;;;5034233;28;20496;-80
2023/05/11 12:53:21;;;;;;;2.10;1.20;;;19.20;55.80;;;;;;5034529;28;20040;-83
2023/05/11 12:55:59;;;;;;;2.35;1.15;;;19.30;56.60;;;;;;5035204;28;20650;-83
2023/05/11 12:58:25;;;;;;;1.17;1.00;;;19.30;56.00;;;;;;5034731;28;20053;-84
2023/05/11 13:00:57;;;;;;;1.08;0.98;;;19.30;56.10;;;;;;5031684;28;20547;-82